TimeCET,TemperatureF,Dew PointF,Humidity,Sea Level PressureIn,VisibilityMPH,Wind Direction,Wind SpeedMPH,Gust SpeedMPH,PrecipitationIn,Events,Conditions,WindDirDegrees,DateUTC
12:25 AM,44.6,41.0,87,30.12,6.2,SW,10.4,-,N/A,,Overcast,220,2012-11-11 23:25:00
12:55 AM,44.6,41.0,87,30.12,6.2,WSW,8.1,-,N/A,,Overcast,240,2012-11-11 23:55:00
1:00 AM,44,40,83,30.17,12,WSW,8.9,,,,Partly Cloudy,240,2012-11-12 00:00:00
1:25 AM,44.6,41.0,87,30.15,6.2,WSW,8.1,-,N/A,,Overcast,240,2012-11-12 00:25:00
1:55 AM,44.6,41.0,87,30.15,6.2,SW,6.9,-,N/A,,Overcast,230,2012-11-12 00:55:00
2:25 AM,44.6,41.0,87,30.15,6.2,SW,8.1,-,N/A,,Overcast,220,2012-11-12 01:25:00
2:55 AM,44.6,41.0,87,30.15,6.2,SSW,6.9,-,N/A,,Overcast,200,2012-11-12 01:55:00
3:25 AM,44.6,41.0,87,30.15,6.2,South,6.9,-,N/A,,Overcast,190,2012-11-12 02:25:00
3:55 AM,44.6,41.0,87,30.15,6.2,SSW,8.1,-,N/A,,Overcast,200,2012-11-12 02:55:00
4:00 AM,44,40,83,30.19,11,SSW,6.7,,,,Overcast,200,2012-11-12 03:00:00
4:25 AM,42.8,39.2,87,30.15,6.2,SSW,8.1,-,N/A,,Mostly Cloudy,200,2012-11-12 03:25:00
4:55 AM,42.8,41.0,93,30.18,6.2,SSW,9.2,-,N/A,,Overcast,200,2012-11-12 03:55:00
5:25 AM,42.8,39.2,87,30.18,6.2,SSW,9.2,-,N/A,,Overcast,200,2012-11-12 04:25:00
5:55 AM,42.8,41.0,93,30.18,6.2,SW,10.4,-,N/A,,Mostly Cloudy,220,2012-11-12 04:55:00
6:25 AM,42.8,39.2,87,30.18,6.2,SW,10.4,-,N/A,,Overcast,220,2012-11-12 05:25:00
6:55 AM,42.8,41.0,93,30.21,6.2,SW,11.5,-,N/A,,Overcast,220,2012-11-12 05:55:00
7:00 AM,43,40,85,30.24,9,SW,11.2,,,,Partly Cloudy,220,2012-11-12 06:00:00
7:25 AM,42.8,41.0,93,30.21,6.2,SW,10.4,-,N/A,,Overcast,220,2012-11-12 06:25:00
7:55 AM,42.8,41.0,93,30.21,6.2,SSW,10.4,-,N/A,,Overcast,210,2012-11-12 06:55:00
8:25 AM,42.8,41.0,93,30.21,6.2,SW,10.4,-,N/A,,Overcast,220,2012-11-12 07:25:00
8:55 AM,42.8,41.0,93,30.24,6.2,SW,9.2,-,N/A,,Mostly Cloudy,220,2012-11-12 07:55:00
9:25 AM,42.8,39.2,87,30.24,6.2,SW,9.2,-,N/A,,Partly Cloudy,220,2012-11-12 08:25:00
9:55 AM,44.6,41.0,87,30.24,6.2,SW,11.5,-,N/A,,Mostly Cloudy,220,2012-11-12 08:55:00
10:00 AM,44,40,82,30.28,9,SW,11.2,,,,Mostly Cloudy,230,2012-11-12 09:00:00
10:25 AM,44.6,41.0,87,30.24,6.2,SW,11.5,-,N/A,,Overcast,230,2012-11-12 09:25:00
10:55 AM,46.4,41.0,81,30.27,6.2,SW,10.4,-,N/A,,Overcast,230,2012-11-12 09:55:00
11:25 AM,46.4,41.0,81,30.27,6.2,SW,11.5,-,N/A,,Mostly Cloudy,230,2012-11-12 10:25:00
11:55 AM,46.4,41.0,81,30.27,6.2,WSW,9.2,-,N/A,,Scattered Clouds,240,2012-11-12 10:55:00
12:25 PM,46.4,41.0,81,30.27,6.2,WSW,10.4,-,N/A,,Mostly Cloudy,240,2012-11-12 11:25:00
12:55 PM,46.4,41.0,81,30.27,6.2,WSW,10.4,-,N/A,,Mostly Cloudy,240,2012-11-12 11:55:00
1:00 PM,47,41,71,30.30,12,SW,15.7,,,,Partly Cloudy,230,2012-11-12 12:00:00
1:25 PM,48.2,41.0,76,30.27,6.2,WSW,11.5,-,N/A,,Mostly Cloudy,240,2012-11-12 12:25:00
1:55 PM,48.2,41.0,76,30.27,6.2,WSW,11.5,-,N/A,,Overcast,250,2012-11-12 12:55:00
2:25 PM,48.2,41.0,76,30.27,6.2,SW,12.7,-,N/A,,Overcast,230,2012-11-12 13:25:00
2:55 PM,48.2,41.0,76,30.27,6.2,SW,10.4,-,N/A,,Overcast,230,2012-11-12 13:55:00
3:25 PM,48.2,39.2,71,30.27,6.2,SW,10.4,-,N/A,,Mostly Cloudy,230,2012-11-12 14:25:00
3:55 PM,48.2,39.2,71,30.30,6.2,SW,12.7,-,N/A,,Overcast,220,2012-11-12 14:55:00
4:00 PM,47,39,66,30.32,19,SW,13.4,,,,Overcast,230,2012-11-12 15:00:00
4:25 PM,46.4,39.2,76,30.30,6.2,SW,12.7,-,N/A,,Overcast,230,2012-11-12 15:25:00
4:55 PM,46.4,39.2,76,30.30,6.2,SW,10.4,-,N/A,,Overcast,220,2012-11-12 15:55:00
5:25 PM,46.4,37.4,71,30.30,6.2,SW,13.8,-,N/A,,Overcast,220,2012-11-12 16:25:00
5:55 PM,42.8,37.4,81,30.30,6.2,SW,9.2,-,N/A,,Unknown,220,2012-11-12 16:55:00
6:25 PM,42.8,37.4,81,30.30,6.2,SW,11.5,-,N/A,,Scattered Clouds,220,2012-11-12 17:25:00
6:55 PM,41.0,37.4,87,30.30,6.2,South,8.1,-,N/A,,Unknown,190,2012-11-12 17:55:00
7:00 PM,42,38,79,30.35,15,South,8.9,,,,Partly Cloudy,190,2012-11-12 18:00:00
7:25 PM,42.8,37.4,81,30.30,6.2,South,11.5,-,N/A,,Unknown,190,2012-11-12 18:25:00
7:55 PM,42.8,37.4,81,30.33,6.2,SSW,12.7,-,N/A,,Unknown,200,2012-11-12 18:55:00
8:25 PM,42.8,37.4,81,30.33,6.2,SSW,12.7,-,N/A,,Unknown,200,2012-11-12 19:25:00
8:55 PM,42.8,37.4,81,30.33,6.2,SSW,12.7,-,N/A,,Unknown,200,2012-11-12 19:55:00
9:25 PM,42.8,37.4,81,30.33,6.2,SSW,12.7,-,N/A,,Unknown,200,2012-11-12 20:25:00
9:55 PM,42.8,37.4,81,30.33,6.2,South,15.0,-,N/A,,Unknown,190,2012-11-12 20:55:00
10:00 PM,42,37,75,30.37,16,South,13.4,,,,Scattered Clouds,190,2012-11-12 21:00:00
10:25 PM,42.8,37.4,81,30.33,6.2,South,11.5,-,N/A,,Unknown,190,2012-11-12 21:25:00
10:55 PM,41.0,37.4,87,30.33,6.2,South,11.5,-,N/A,,Unknown,190,2012-11-12 21:55:00
11:25 PM,42.8,37.4,81,30.33,6.2,SSW,12.7,-,N/A,,Unknown,200,2012-11-12 22:25:00
11:55 PM,42.8,37.4,81,30.33,6.2,South,15.0,-,N/A,,Unknown,190,2012-11-12 22:55:00